Time;durP1;ratioP1;P1;durP2;ratioP2;P2;SDS_P1;SDS_P2;PMS_P1;PMS_P2;Temp;Humidity;BMP_temperature;BMP_pressure;BME280_temperature;BME280_humidity;BME280_pressure;Samples;Min_cycle;Max_cycle;Signal;HPM_P1;HPM_P2
2023/12/04 00:01:15;;;;;;;32.00;28.70;;;;;;;;;;5003695;28;25062;-72
2023/12/04 00:03:41;;;;;;;31.25;27.35;;;;;;;;;;5006128;28;25098;-71
2023/12/04 00:06:07;;;;;;;28.85;25.80;;;;;;;;;;5006366;28;25071;-72
2023/12/04 00:08:33;;;;;;;30.00;26.77;;;;;;;;;;5006839;28;25119;-72
2023/12/04 00:10:59;;;;;;;36.10;31.27;;;;;;;;;;5002316;28;25143;-72
2023/12/04 00:13:25;;;;;;;31.70;27.95;;;;;;;;;;5005678;28;25062;-72
2023/12/04 00:15:51;;;;;;;29.40;26.27;;;;;;;;;;5005597;28;25118;-71
2023/12/04 00:18:17;;;;;;;31.48;28.15;;;;;;;;;;5001907;28;25150;-71
2023/12/04 00:20:43;;;;;;;31.95;27.33;;;;;;;;;;5007319;28;25101;-71
2023/12/04 00:23:09;;;;;;;33.08;29.48;;;;;;;;;;5006421;28;25073;-71
2023/12/04 00:25:35;;;;;;;30.02;26.88;;;;;;;;;;5005394;28;25077;-73
2023/12/04 00:28:01;;;;;;;32.50;29.00;;;;;;;;;;5006555;28;25072;-72
2023/12/04 00:30:26;;;;;;;32.75;29.05;;;;;;;;;;5006390;28;25094;-73
2023/12/04 00:32:52;;;;;;;28.88;25.80;;;;;;;;;;5005602;28;25073;-72
2023/12/04 00:35:18;;;;;;;27.42;24.48;;;;;;;;;;5007047;28;25051;-72
2023/12/04 00:37:44;;;;;;;29.88;25.58;;;;;;;;;;5005230;28;25089;-74
2023/12/04 00:40:11;;;;;;;24.98;22.08;;;;;;;;;;5005272;28;25132;-72
2023/12/04 00:42:37;;;;;;;26.20;22.02;;;;;;;;;;5003533;28;25049;-71
2023/12/04 00:45:03;;;;;;;25.60;22.55;;;;;;;;;;5004967;28;25150;-71
2023/12/04 00:47:29;;;;;;;24.30;20.60;;;;;;;;;;5007060;28;25066;-72
2023/12/04 00:49:55;;;;;;;28.70;22.17;;;;;;;;;;5007410;28;25069;-72
2023/12/04 00:52:21;;;;;;;26.60;20.73;;;;;;;;;;5004786;28;25068;-71
2023/12/04 00:54:47;;;;;;;27.15;21.75;;;;;;;;;;5004599;28;25150;-73
2023/12/04 00:57:13;;;;;;;24.95;20.45;;;;;;;;;;5005183;28;25140;-72
2023/12/04 00:59:39;;;;;;;23.85;20.60;;;;;;;;;;5007524;28;25077;-72
2023/12/04 01:02:06;;;;;;;24.70;19.98;;;;;;;;;;5012558;28;25073;-71
2023/12/04 01:04:32;;;;;;;25.73;20.65;;;;;;;;;;5028166;28;25060;-72
2023/12/04 01:06:58;;;;;;;24.92;20.17;;;;;;;;;;5027227;28;25062;-73
2023/12/04 01:09:24;;;;;;;26.40;20.10;;;;;;;;;;5018053;28;25098;-74
2023/12/04 01:11:53;;;;;;;24.55;19.50;;;;;;;;;;5016260;28;25058;-72
2023/12/04 01:14:19;;;;;;;26.98;19.27;;;;;;;;;;5012380;28;25093;-72
2023/12/04 01:16:45;;;;;;;25.13;17.40;;;;;;;;;;5013324;28;25067;-72
2023/12/04 01:19:11;;;;;;;23.50;18.98;;;;;;;;;;5008375;28;25153;-73
2023/12/04 01:21:37;;;;;;;22.92;17.42;;;;;;;;;;5012681;28;25058;-71
2023/12/04 01:24:03;;;;;;;24.83;19.10;;;;;;;;;;5009475;28;25071;-72
2023/12/04 01:26:29;;;;;;;24.27;18.95;;;;;;;;;;5009549;28;25063;-72
2023/12/04 01:28:55;;;;;;;24.98;18.95;;;;;;;;;;5010249;28;25147;-72
2023/12/04 01:31:21;;;;;;;23.80;18.45;;;;;;;;;;5007315;28;25056;-72
2023/12/04 01:33:47;;;;;;;22.85;18.85;;;;;;;;;;5007756;28;25060;-72
2023/12/04 01:36:13;;;;;;;20.05;16.55;;;;;;;;;;5009753;28;25064;-72
2023/12/04 01:38:39;;;;;;;19.92;16.20;;;;;;;;;;5005137;28;25143;-71
2023/12/04 01:41:05;;;;;;;23.63;15.77;;;;;;;;;;5004415;28;25065;-71
2023/12/04 01:43:31;;;;;;;20.55;13.80;;;;;;;;;;5009058;28;25068;-72
2023/12/04 01:45:57;;;;;;;21.98;15.07;;;;;;;;;;5014831;28;25061;-71
2023/12/04 01:48:24;;;;;;;18.80;13.02;;;;;;;;;;5013418;28;25158;-72
2023/12/04 01:50:50;;;;;;;22.30;14.63;;;;;;;;;;5009317;28;25057;-71
2023/12/04 01:53:16;;;;;;;20.73;13.00;;;;;;;;;;5010183;28;25072;-72
2023/12/04 01:55:42;;;;;;;20.42;12.68;;;;;;;;;;5009079;28;25132;-72
2023/12/04 01:58:08;;;;;;;19.38;13.07;;;;;;;;;;5009564;28;25178;-71
2023/12/04 02:00:35;;;;;;;17.58;12.25;;;;;;;;;;5010721;28;25072;-71
2023/12/04 02:03:01;;;;;;;18.33;12.48;;;;;;;;;;5009063;28;25508;-73
2023/12/04 02:05:28;;;;;;;20.17;13.07;;;;;;;;;;5008914;28;25063;-73
2023/12/04 02:07:54;;;;;;;17.58;12.10;;;;;;;;;;5006972;28;25060;-73
2023/12/04 02:10:20;;;;;;;19.60;12.85;;;;;;;;;;5022967;28;25094;-72
2023/12/04 02:12:46;;;;;;;17.13;10.85;;;;;;;;;;5008419;28;25117;-72
2023/12/04 02:15:13;;;;;;;18.95;10.85;;;;;;;;;;5007936;28;25143;-72
2023/12/04 02:17:39;;;;;;;18.13;11.48;;;;;;;;;;5009293;28;25068;-71
2023/12/04 02:20:06;;;;;;;16.95;10.85;;;;;;;;;;5008349;28;25082;-72
2023/12/04 02:22:33;;;;;;;21.23;10.90;;;;;;;;;;5008495;28;25161;-72
2023/12/04 02:25:00;;;;;;;19.48;11.45;;;;;;;;;;5007373;28;25065;-72
2023/12/04 02:27:28;;;;;;;17.00;10.48;;;;;;;;;;5008403;28;25065;-73
2023/12/04 02:29:58;;;;;;;17.73;11.23;;;;;;;;;;5013865;28;25109;-73
2023/12/04 02:32:25;;;;;;;15.75;8.98;;;;;;;;;;5008712;28;25098;-72
2023/12/04 02:34:52;;;;;;;14.35;9.15;;;;;;;;;;5007537;28;25090;-72
2023/12/04 02:37:19;;;;;;;16.05;10.07;;;;;;;;;;5008016;28;25076;-72
2023/12/04 02:39:45;;;;;;;15.05;9.15;;;;;;;;;;5006740;28;25131;-71
2023/12/04 02:42:13;;;;;;;16.48;9.90;;;;;;;;;;5007598;28;25057;-72
2023/12/04 02:44:39;;;;;;;16.67;10.45;;;;;;;;;;5005018;28;25141;-71
2023/12/04 02:47:05;;;;;;;15.25;9.95;;;;;;;;;;5006832;28;25055;-72
2023/12/04 02:49:31;;;;;;;15.93;9.63;;;;;;;;;;5006860;28;25088;-71
2023/12/04 02:51:57;;;;;;;15.93;9.85;;;;;;;;;;5005140;28;25171;-72
2023/12/04 02:54:23;;;;;;;14.82;9.15;;;;;;;;;;5000745;28;25061;-73
2023/12/04 02:56:50;;;;;;;15.07;9.13;;;;;;;;;;5005184;28;25152;-73
2023/12/04 02:59:16;;;;;;;15.82;9.23;;;;;;;;;;5008621;28;25203;-73
2023/12/04 03:01:42;;;;;;;14.68;8.82;;;;;;;;;;5008254;28;25081;-73
2023/12/04 03:04:08;;;;;;;17.95;10.25;;;;;;;;;;5006595;28;25078;-73
2023/12/04 03:06:34;;;;;;;15.10;8.80;;;;;;;;;;5008155;28;25092;-72
2023/12/04 03:09:00;;;;;;;17.40;10.18;;;;;;;;;;5010414;28;25083;-72
2023/12/04 03:11:26;;;;;;;16.52;10.50;;;;;;;;;;5013764;28;25072;-72
2023/12/04 03:13:52;;;;;;;14.63;9.27;;;;;;;;;;5013100;28;25082;-72
2023/12/04 03:16:18;;;;;;;15.38;8.70;;;;;;;;;;5012563;28;25155;-72
2023/12/04 03:18:45;;;;;;;15.07;9.00;;;;;;;;;;5011964;28;25195;-72
2023/12/04 03:21:11;;;;;;;14.50;8.90;;;;;;;;;;5010428;28;25033;-71
2023/12/04 03:23:37;;;;;;;14.52;9.25;;;;;;;;;;5013042;28;25067;-73
2023/12/04 03:26:03;;;;;;;18.05;9.88;;;;;;;;;;5010130;28;25110;-71
2023/12/04 03:28:29;;;;;;;15.68;9.98;;;;;;;;;;5009286;28;25047;-72
2023/12/04 03:30:55;;;;;;;15.43;10.13;;;;;;;;;;5010024;28;25140;-72
2023/12/04 03:33:21;;;;;;;15.38;8.65;;;;;;;;;;5009786;28;25082;-71
2023/12/04 03:35:47;;;;;;;14.60;8.15;;;;;;;;;;5011517;28;25190;-72
2023/12/04 03:38:13;;;;;;;13.02;8.35;;;;;;;;;;5008286;28;25104;-72
2023/12/04 03:40:39;;;;;;;13.48;8.60;;;;;;;;;;5012513;28;25094;-72
2023/12/04 03:43:05;;;;;;;14.95;8.70;;;;;;;;;;5013603;28;25089;-71
2023/12/04 03:45:31;;;;;;;14.65;9.18;;;;;;;;;;5013384;28;25072;-71
2023/12/04 03:47:57;;;;;;;13.63;9.07;;;;;;;;;;5010625;28;25074;-72
2023/12/04 03:50:23;;;;;;;15.45;8.73;;;;;;;;;;5009377;28;25141;-72
2023/12/04 03:52:49;;;;;;;13.65;8.77;;;;;;;;;;5007604;28;25116;-71
2023/12/04 03:55:15;;;;;;;14.80;9.60;;;;;;;;;;5011178;28;25062;-73
2023/12/04 03:57:42;;;;;;;15.82;9.30;;;;;;;;;;5010718;28;25104;-72
2023/12/04 04:00:10;;;;;;;16.10;9.18;;;;;;;;;;5012555;28;25132;-71
2023/12/04 04:02:36;;;;;;;14.13;8.88;;;;;;;;;;5013191;28;25087;-73
2023/12/04 04:05:02;;;;;;;15.15;9.13;;;;;;;;;;5006257;28;25177;-71
2023/12/04 04:07:28;;;;;;;15.18;8.90;;;;;;;;;;5005117;28;25150;-71
2023/12/04 04:09:54;;;;;;;13.52;8.52;;;;;;;;;;5003888;28;25057;-72
2023/12/04 04:12:20;;;;;;;12.63;8.05;;;;;;;;;;5004729;28;25059;-73
2023/12/04 04:14:46;;;;;;;18.63;9.25;;;;;;;;;;5003794;28;25055;-73
2023/12/04 04:17:12;;;;;;;12.60;8.20;;;;;;;;;;5005234;28;25070;-71
2023/12/04 04:19:37;;;;;;;15.73;9.27;;;;;;;;;;5005165;28;25057;-71
2023/12/04 04:22:04;;;;;;;14.15;8.77;;;;;;;;;;5005955;28;25065;-73
2023/12/04 04:24:30;;;;;;;13.63;8.82;;;;;;;;;;5003816;28;25049;-73
2023/12/04 04:26:56;;;;;;;14.82;8.68;;;;;;;;;;5009593;28;25069;-72
2023/12/04 04:29:22;;;;;;;12.30;8.48;;;;;;;;;;5009173;28;25059;-72
2023/12/04 04:31:47;;;;;;;12.27;8.07;;;;;;;;;;5009986;28;25075;-72
2023/12/04 04:34:13;;;;;;;14.32;8.68;;;;;;;;;;5003221;28;25065;-72
2023/12/04 04:36:39;;;;;;;14.55;8.20;;;;;;;;;;5010790;28;25059;-73
2023/12/04 04:39:06;;;;;;;14.23;8.73;;;;;;;;;;5010402;28;25077;-71
2023/12/04 04:41:32;;;;;;;11.88;7.90;;;;;;;;;;5013304;28;25067;-72
2023/12/04 04:43:58;;;;;;;15.27;7.95;;;;;;;;;;5019047;28;25106;-70
2023/12/04 04:46:26;;;;;;;13.40;8.40;;;;;;;;;;5021939;28;25102;-72
2023/12/04 04:48:52;;;;;;;12.98;8.82;;;;;;;;;;5010586;28;25064;-71
2023/12/04 04:51:18;;;;;;;13.50;8.18;;;;;;;;;;5006101;28;25119;-71
2023/12/04 04:53:44;;;;;;;14.00;8.57;;;;;;;;;;5005533;28;25146;-73
2023/12/04 04:56:10;;;;;;;13.02;8.50;;;;;;;;;;5001435;28;25068;-72
2023/12/04 04:58:36;;;;;;;16.02;8.90;;;;;;;;;;5004837;28;25116;-71
2023/12/04 05:01:02;;;;;;;14.30;8.80;;;;;;;;;;5007565;28;25082;-71
2023/12/04 05:03:28;;;;;;;14.75;9.55;;;;;;;;;;5018360;28;25139;-72
2023/12/04 05:05:54;;;;;;;14.50;9.05;;;;;;;;;;5005578;28;25081;-73
2023/12/04 05:08:20;;;;;;;16.35;9.90;;;;;;;;;;5001164;28;25093;-72
2023/12/04 05:10:46;;;;;;;14.95;8.98;;;;;;;;;;5004093;28;25086;-72
2023/12/04 05:13:12;;;;;;;16.58;9.70;;;;;;;;;;5003936;28;25058;-71
2023/12/04 05:15:38;;;;;;;15.38;8.75;;;;;;;;;;5004571;28;25111;-71
2023/12/04 05:18:04;;;;;;;14.95;8.40;;;;;;;;;;5013065;28;25148;-72
2023/12/04 05:20:30;;;;;;;15.13;9.35;;;;;;;;;;5003870;28;25058;-72
2023/12/04 05:22:57;;;;;;;16.65;9.55;;;;;;;;;;5004563;28;25058;-72
2023/12/04 05:25:23;;;;;;;14.15;9.10;;;;;;;;;;5004520;28;25093;-72
2023/12/04 05:27:49;;;;;;;16.60;10.25;;;;;;;;;;5002388;28;25055;-73
2023/12/04 05:30:15;;;;;;;14.88;9.27;;;;;;;;;;5005287;28;25110;-71
2023/12/04 05:32:41;;;;;;;17.33;9.45;;;;;;;;;;5008426;28;25109;-73
2023/12/04 05:35:07;;;;;;;16.25;10.02;;;;;;;;;;5003962;28;25299;-72
2023/12/04 05:37:33;;;;;;;18.63;10.68;;;;;;;;;;5002067;28;25145;-72
2023/12/04 05:39:59;;;;;;;15.75;9.98;;;;;;;;;;5004455;28;25186;-72
2023/12/04 05:42:25;;;;;;;17.13;10.30;;;;;;;;;;5003756;28;25162;-71
2023/12/04 05:44:55;;;;;;;13.98;9.73;;;;;;;;;;5004034;28;25161;-72
2023/12/04 05:47:21;;;;;;;15.63;9.57;;;;;;;;;;5001960;28;25083;-73
2023/12/04 05:49:47;;;;;;;13.95;8.73;;;;;;;;;;5004274;28;25057;-73
2023/12/04 05:52:13;;;;;;;15.50;9.15;;;;;;;;;;5005823;28;25080;-72
2023/12/04 05:54:39;;;;;;;12.27;8.20;;;;;;;;;;5007058;28;25082;-72
2023/12/04 05:57:05;;;;;;;15.35;9.13;;;;;;;;;;5008360;28;25104;-72
2023/12/04 05:59:31;;;;;;;14.80;8.27;;;;;;;;;;5008448;28;25080;-72
2023/12/04 06:01:57;;;;;;;12.40;8.35;;;;;;;;;;5009263;28;25057;-73
2023/12/04 06:04:23;;;;;;;12.77;8.73;;;;;;;;;;5007190;28;25061;-73
2023/12/04 06:06:49;;;;;;;15.10;9.00;;;;;;;;;;5007748;28;25061;-74
2023/12/04 06:09:16;;;;;;;12.30;7.85;;;;;;;;;;5007321;28;25063;-74
2023/12/04 06:11:42;;;;;;;12.88;7.68;;;;;;;;;;5008153;28;25196;-72
2023/12/04 06:14:08;;;;;;;13.25;8.85;;;;;;;;;;5007972;28;25142;-73
2023/12/04 06:16:37;;;;;;;13.77;8.23;;;;;;;;;;5008011;28;25116;-72
2023/12/04 06:19:04;;;;;;;15.77;8.20;;;;;;;;;;5007029;28;25067;-72
2023/12/04 06:21:30;;;;;;;13.55;8.32;;;;;;;;;;5007660;28;25054;-72
2023/12/04 06:23:57;;;;;;;13.70;8.20;;;;;;;;;;5004617;28;25074;-72
2023/12/04 06:26:23;;;;;;;12.85;7.93;;;;;;;;;;5005731;28;25112;-72
2023/12/04 06:28:49;;;;;;;13.88;8.18;;;;;;;;;;5002796;28;25060;-73
2023/12/04 06:31:15;;;;;;;14.43;8.85;;;;;;;;;;5006123;28;25083;-72
2023/12/04 06:33:41;;;;;;;14.48;8.60;;;;;;;;;;5001867;28;25144;-72
2023/12/04 06:36:08;;;;;;;12.23;8.20;;;;;;;;;;5007563;28;25076;-72
2023/12/04 06:38:38;;;;;;;15.63;8.73;;;;;;;;;;5004552;28;25054;-74
2023/12/04 06:41:04;;;;;;;12.45;8.10;;;;;;;;;;5006169;28;25075;-73
2023/12/04 06:43:30;;;;;;;13.85;8.35;;;;;;;;;;5003596;28;25085;-72
2023/12/04 06:45:58;;;;;;;12.30;8.32;;;;;;;;;;5006422;28;25057;-72
2023/12/04 06:48:24;;;;;;;12.30;8.52;;;;;;;;;;5007226;28;25124;-71
2023/12/04 06:50:50;;;;;;;11.90;7.88;;;;;;;;;;5021879;28;25055;-73
2023/12/04 06:53:16;;;;;;;17.13;8.90;;;;;;;;;;5006424;28;25085;-74
2023/12/04 06:55:42;;;;;;;13.25;8.55;;;;;;;;;;5005947;28;25049;-73
2023/12/04 06:58:08;;;;;;;13.35;8.02;;;;;;;;;;5004254;28;25073;-73
2023/12/04 07:00:34;;;;;;;11.98;7.68;;;;;;;;;;5005039;28;25072;-73
2023/12/04 07:03:00;;;;;;;9.52;6.75;;;;;;;;;;5006040;28;25113;-75
2023/12/04 07:05:26;;;;;;;12.18;7.47;;;;;;;;;;5007251;28;25169;-73
2023/12/04 07:07:52;;;;;;;11.57;7.22;;;;;;;;;;5008332;28;25064;-75
2023/12/04 07:10:18;;;;;;;12.45;7.55;;;;;;;;;;5012362;28;25060;-73
2023/12/04 07:12:44;;;;;;;12.40;7.55;;;;;;;;;;5012117;28;25075;-73
2023/12/04 07:15:11;;;;;;;14.15;8.18;;;;;;;;;;5007966;28;25063;-74
2023/12/04 07:17:37;;;;;;;9.68;6.90;;;;;;;;;;5007805;28;25076;-73
2023/12/04 07:20:06;;;;;;;13.60;8.45;;;;;;;;;;5003600;28;25078;-73
2023/12/04 07:22:35;;;;;;;10.77;7.10;;;;;;;;;;5011491;28;25110;-73
2023/12/04 07:25:01;;;;;;;11.27;7.45;;;;;;;;;;5001413;28;25065;-71
2023/12/04 07:27:28;;;;;;;15.07;7.63;;;;;;;;;;5006270;28;25148;-71
2023/12/04 07:29:54;;;;;;;10.82;6.88;;;;;;;;;;5004353;28;25079;-72
2023/12/04 07:32:20;;;;;;;8.95;6.60;;;;;;;;;;5006081;28;25054;-71
2023/12/04 07:34:46;;;;;;;11.63;7.18;;;;;;;;;;5006637;28;25092;-71
2023/12/04 07:37:12;;;;;;;9.13;6.65;;;;;;;;;;5014475;28;25069;-72
2023/12/04 07:39:38;;;;;;;11.88;6.72;;;;;;;;;;5005551;28;25045;-71
2023/12/04 07:42:04;;;;;;;11.43;6.53;;;;;;;;;;5004257;28;25093;-71
2023/12/04 07:44:30;;;;;;;10.63;7.15;;;;;;;;;;5003523;28;25069;-71
2023/12/04 07:46:57;;;;;;;9.15;6.60;;;;;;;;;;5007140;28;25061;-72
2023/12/04 07:49:23;;;;;;;10.20;7.18;;;;;;;;;;5003631;28;25144;-70
2023/12/04 07:51:49;;;;;;;10.27;6.78;;;;;;;;;;5002761;28;25055;-71
2023/12/04 07:54:15;;;;;;;10.00;6.50;;;;;;;;;;5001751;28;25090;-71
2023/12/04 07:56:42;;;;;;;10.82;7.18;;;;;;;;;;5005838;28;25138;-70
2023/12/04 07:59:08;;;;;;;12.23;7.13;;;;;;;;;;5004254;28;25080;-71
2023/12/04 08:01:34;;;;;;;11.80;7.53;;;;;;;;;;5004953;28;25142;-71
2023/12/04 08:04:00;;;;;;;9.38;6.85;;;;;;;;;;5005736;28;25048;-71
2023/12/04 08:06:26;;;;;;;12.68;7.10;;;;;;;;;;5019027;28;25059;-71
2023/12/04 08:08:52;;;;;;;10.38;6.75;;;;;;;;;;5018323;28;25080;-70
2023/12/04 08:11:18;;;;;;;9.18;6.38;;;;;;;;;;5014807;28;25096;-71
2023/12/04 08:13:44;;;;;;;10.93;6.75;;;;;;;;;;5009948;28;25079;-71
2023/12/04 08:16:17;;;;;;;9.95;6.63;;;;;;;;;;5011991;28;25079;-73
2023/12/04 08:18:43;;;;;;;10.18;6.05;;;;;;;;;;5006910;28;25099;-71
2023/12/04 08:21:09;;;;;;;9.63;6.43;;;;;;;;;;5002292;28;25040;-71
2023/12/04 08:23:35;;;;;;;10.43;7.43;;;;;;;;;;5009351;28;25099;-71
2023/12/04 08:26:01;;;;;;;10.25;6.97;;;;;;;;;;5012361;28;25107;-72
2023/12/04 08:28:27;;;;;;;8.75;6.53;;;;;;;;;;5012980;28;25062;-70
2023/12/04 08:30:53;;;;;;;10.50;7.20;;;;;;;;;;5012401;28;25062;-71
2023/12/04 08:33:20;;;;;;;12.93;6.75;;;;;;;;;;5009666;28;25140;-71
2023/12/04 08:35:47;;;;;;;9.95;6.40;;;;;;;;;;5008851;28;25071;-72
2023/12/04 08:38:13;;;;;;;10.20;6.63;;;;;;;;;;5011327;28;25122;-70
2023/12/04 08:40:39;;;;;;;10.90;6.85;;;;;;;;;;5025736;28;25092;-72
2023/12/04 08:43:05;;;;;;;13.48;7.32;;;;;;;;;;5004131;28;25115;-72
2023/12/04 08:45:31;;;;;;;13.10;8.07;;;;;;;;;;5004184;28;25067;-72
2023/12/04 08:47:57;;;;;;;13.48;7.72;;;;;;;;;;5005322;28;25386;-71
2023/12/04 08:50:25;;;;;;;12.02;7.88;;;;;;;;;;5004767;28;25080;-72
2023/12/04 08:52:51;;;;;;;13.93;6.70;;;;;;;;;;5020038;28;25052;-72
2023/12/04 08:55:17;;;;;;;8.90;6.75;;;;;;;;;;5003371;28;25067;-72
2023/12/04 08:57:43;;;;;;;13.45;7.32;;;;;;;;;;5005284;28;25060;-71
2023/12/04 09:00:10;;;;;;;11.10;7.05;;;;;;;;;;5004772;28;25136;-71
2023/12/04 09:02:36;;;;;;;8.77;6.22;;;;;;;;;;5005164;28;25130;-72
2023/12/04 09:05:02;;;;;;;11.13;7.20;;;;;;;;;;5003859;28;25054;-72
2023/12/04 09:07:28;;;;;;;9.82;7.00;;;;;;;;;;5003626;28;25120;-72
2023/12/04 09:09:53;;;;;;;11.55;6.68;;;;;;;;;;5003221;28;25135;-72
2023/12/04 09:12:19;;;;;;;12.00;6.78;;;;;;;;;;5003853;28;25060;-70
2023/12/04 09:14:46;;;;;;;9.00;6.32;;;;;;;;;;5004607;28;25086;-72
2023/12/04 09:17:11;;;;;;;11.38;6.38;;;;;;;;;;5004621;28;25053;-73
2023/12/04 09:19:37;;;;;;;9.80;6.32;;;;;;;;;;5000788;28;25051;-71
2023/12/04 09:22:03;;;;;;;10.73;6.68;;;;;;;;;;5005181;28;25066;-71
2023/12/04 09:24:31;;;;;;;10.80;6.15;;;;;;;;;;5002421;28;25074;-73
2023/12/04 09:26:57;;;;;;;10.88;6.22;;;;;;;;;;5006852;28;25169;-72
2023/12/04 09:29:23;;;;;;;9.27;6.15;;;;;;;;;;5008830;28;25103;-71
2023/12/04 09:31:50;;;;;;;10.75;6.45;;;;;;;;;;5008947;28;25048;-72
2023/12/04 09:34:17;;;;;;;10.82;5.85;;;;;;;;;;5009948;28;25064;-71
2023/12/04 09:36:43;;;;;;;8.27;6.03;;;;;;;;;;5009363;28;25073;-72
2023/12/04 09:39:10;;;;;;;8.27;5.38;;;;;;;;;;5009829;28;25081;-71
2023/12/04 09:41:36;;;;;;;9.02;6.47;;;;;;;;;;5009992;28;25161;-71
2023/12/04 09:44:02;;;;;;;8.73;6.00;;;;;;;;;;5009593;28;25062;-72
2023/12/04 09:46:28;;;;;;;8.57;5.43;;;;;;;;;;5011719;28;25058;-72
2023/12/04 09:48:55;;;;;;;10.32;6.40;;;;;;;;;;5009829;28;25059;-71
2023/12/04 09:51:22;;;;;;;8.68;6.00;;;;;;;;;;5013951;28;25059;-72
2023/12/04 09:53:48;;;;;;;9.85;6.50;;;;;;;;;;5025757;28;25076;-71
2023/12/04 09:56:17;;;;;;;9.02;6.05;;;;;;;;;;5013918;28;25138;-71
2023/12/04 09:58:44;;;;;;;7.35;5.30;;;;;;;;;;5009615;28;25026;-71
2023/12/04 10:01:11;;;;;;;7.97;5.82;;;;;;;;;;5005295;28;25186;-71
2023/12/04 10:03:37;;;;;;;10.57;6.55;;;;;;;;;;5005581;28;25096;-72
2023/12/04 10:06:04;;;;;;;9.35;6.00;;;;;;;;;;5006626;28;25120;-71
2023/12/04 10:08:30;;;;;;;9.68;6.00;;;;;;;;;;5006596;28;25081;-71
2023/12/04 10:10:56;;;;;;;10.20;6.00;;;;;;;;;;5007373;28;25059;-72
2023/12/04 10:13:23;;;;;;;8.48;5.60;;;;;;;;;;5008964;28;25050;-71
2023/12/04 10:15:49;;;;;;;8.75;5.85;;;;;;;;;;5007456;28;25181;-71
2023/12/04 10:18:25;;;;;;;8.05;6.07;;;;;;;;;;5008002;28;25220;-71
2023/12/04 10:20:57;;;;;;;8.77;6.18;;;;;;;;;;5007063;28;25109;-73
2023/12/04 10:23:23;;;;;;;7.93;5.80;;;;;;;;;;5007199;28;25080;-71
2023/12/04 10:25:53;;;;;;;10.32;6.18;;;;;;;;;;5021302;28;25059;-72
2023/12/04 10:28:20;;;;;;;7.65;5.85;;;;;;;;;;5007498;28;25110;-72
2023/12/04 10:30:46;;;;;;;7.60;5.57;;;;;;;;;;5007581;28;25062;-71
2023/12/04 10:33:13;;;;;;;9.18;5.78;;;;;;;;;;5007133;28;24798;-71
2023/12/04 10:35:39;;;;;;;6.68;5.18;;;;;;;;;;5005635;28;25131;-72
2023/12/04 10:38:06;;;;;;;8.98;5.60;;;;;;;;;;5006968;28;25059;-74
2023/12/04 10:40:33;;;;;;;6.78;5.22;;;;;;;;;;5008863;28;25056;-71
2023/12/04 10:43:12;;;;;;;7.63;5.20;;;;;;;;;;5009334;28;25051;-72
2023/12/04 10:45:39;;;;;;;9.27;5.32;;;;;;;;;;5003727;28;25058;-71
2023/12/04 10:48:05;;;;;;;8.52;5.10;;;;;;;;;;5006834;28;25052;-72
2023/12/04 10:50:35;;;;;;;7.38;5.35;;;;;;;;;;5005928;28;25056;-72
2023/12/04 10:53:12;;;;;;;10.93;6.00;;;;;;;;;;5019359;28;25077;-72
2023/12/04 10:55:39;;;;;;;8.70;5.53;;;;;;;;;;5004545;28;25101;-73
2023/12/04 10:58:06;;;;;;;11.25;5.25;;;;;;;;;;5008041;28;25150;-72
2023/12/04 11:00:38;;;;;;;7.70;5.32;;;;;;;;;;5006684;28;25064;-73
2023/12/04 11:03:10;;;;;;;7.50;5.50;;;;;;;;;;5008421;28;25074;-74
2023/12/04 11:05:40;;;;;;;8.32;5.78;;;;;;;;;;5009350;28;25075;-72
2023/12/04 11:08:07;;;;;;;10.02;5.85;;;;;;;;;;5007709;28;25067;-73
2023/12/04 11:10:35;;;;;;;10.18;5.82;;;;;;;;;;5006989;28;25132;-72
2023/12/04 11:13:03;;;;;;;7.35;5.80;;;;;;;;;;5007208;28;25070;-73
2023/12/04 11:15:30;;;;;;;10.75;5.95;;;;;;;;;;5002363;28;25079;-71
2023/12/04 11:18:01;;;;;;;10.55;6.00;;;;;;;;;;5014138;28;25077;-69
2023/12/04 11:20:28;;;;;;;7.55;5.32;;;;;;;;;;5015239;28;25066;-71
2023/12/04 11:22:54;;;;;;;7.75;5.78;;;;;;;;;;5022571;28;25051;-70
2023/12/04 11:25:23;;;;;;;10.38;5.38;;;;;;;;;;5022421;28;25058;-72
2023/12/04 11:27:49;;;;;;;9.15;5.97;;;;;;;;;;5015834;28;25074;-72
2023/12/04 11:30:15;;;;;;;7.97;5.13;;;;;;;;;;5013554;28;25153;-73
2023/12/04 11:32:46;;;;;;;6.75;5.07;;;;;;;;;;5010204;28;25078;-72
2023/12/04 11:35:18;;;;;;;8.93;5.10;;;;;;;;;;5009900;28;25075;-73
2023/12/04 11:37:44;;;;;;;;;;;;;;;;;;5004266;28;25152;-72
2023/12/04 11:40:13;;;;;;;10.23;6.18;;;;;;;;;;5006484;28;25060;-72
2023/12/04 11:42:39;;;;;;;10.05;6.07;;;;;;;;;;5012479;28;25064;-72
2023/12/04 11:45:05;;;;;;;8.25;5.43;;;;;;;;;;5008947;28;25074;-70
2023/12/04 11:47:34;;;;;;;8.02;5.50;;;;;;;;;;5010905;28;25065;-71
2023/12/04 11:50:00;;;;;;;7.90;5.72;;;;;;;;;;5008048;28;25068;-71
2023/12/04 11:52:36;;;;;;;12.43;5.95;;;;;;;;;;5006149;28;25099;-71
2023/12/04 11:55:05;;;;;;;8.10;6.07;;;;;;;;;;5005509;28;25100;-71
2023/12/04 11:57:37;;;;;;;8.20;6.10;;;;;;;;;;5006250;28;25051;-73
2023/12/04 12:00:11;;;;;;;8.63;6.00;;;;;;;;;;5003804;28;25111;-71
2023/12/04 12:02:38;;;;;;;11.07;5.95;;;;;;;;;;5001709;28;25106;-71
2023/12/04 12:05:04;;;;;;;9.32;6.30;;;;;;;;;;5004836;28;25066;-71
2023/12/04 12:07:31;;;;;;;8.68;6.35;;;;;;;;;;5006082;28;25083;-71
2023/12/04 12:09:57;;;;;;;11.27;6.57;;;;;;;;;;5005049;28;25069;-73
2023/12/04 12:12:23;;;;;;;10.95;6.63;;;;;;;;;;5006336;28;25073;-72
2023/12/04 12:14:49;;;;;;;9.35;6.35;;;;;;;;;;5005732;28;25055;-72
2023/12/04 12:17:15;;;;;;;8.65;6.10;;;;;;;;;;5003780;28;25082;-72
2023/12/04 12:19:41;;;;;;;10.35;6.95;;;;;;;;;;5004678;28;25143;-71
2023/12/04 12:22:08;;;;;;;9.18;5.88;;;;;;;;;;5005527;28;25061;-72
2023/12/04 12:24:34;;;;;;;8.57;6.43;;;;;;;;;;5004341;28;25063;-71
2023/12/04 12:27:00;;;;;;;11.88;6.45;;;;;;;;;;5020602;28;25064;-72
2023/12/04 12:29:27;;;;;;;10.57;7.35;;;;;;;;;;5005837;28;25060;-72
2023/12/04 12:31:54;;;;;;;10.23;6.80;;;;;;;;;;5005240;28;25128;-72
2023/12/04 12:34:20;;;;;;;9.38;6.13;;;;;;;;;;5013544;28;25108;-70
2023/12/04 12:36:46;;;;;;;9.68;6.75;;;;;;;;;;5001580;28;25148;-71
2023/12/04 12:39:12;;;;;;;11.82;6.60;;;;;;;;;;5005152;28;25114;-70
2023/12/04 12:41:38;;;;;;;10.30;6.60;;;;;;;;;;5004028;28;25075;-71
2023/12/04 12:44:05;;;;;;;10.07;6.65;;;;;;;;;;5003744;28;25066;-71
2023/12/04 12:46:31;;;;;;;12.45;7.00;;;;;;;;;;5004787;28;25053;-70
2023/12/04 12:48:58;;;;;;;11.43;7.25;;;;;;;;;;5004524;28;25076;-71
2023/12/04 12:51:24;;;;;;;15.50;8.02;;;;;;;;;;5005932;28;25066;-71
2023/12/04 12:53:51;;;;;;;15.07;7.90;;;;;;;;;;5006223;28;25057;-72
2023/12/04 12:56:17;;;;;;;9.73;6.93;;;;;;;;;;5005791;28;25060;-71
2023/12/04 12:58:43;;;;;;;11.15;7.10;;;;;;;;;;5005009;28;25065;-71
2023/12/04 13:01:12;;;;;;;10.77;7.90;;;;;;;;;;5009437;28;25053;-71
2023/12/04 13:03:38;;;;;;;12.35;7.72;;;;;;;;;;5005999;28;25170;-72
2023/12/04 13:06:04;;;;;;;13.15;7.80;;;;;;;;;;5005831;28;25111;-73
2023/12/04 13:08:31;;;;;;;14.43;8.23;;;;;;;;;;5008669;28;25087;-70
2023/12/04 13:10:56;;;;;;;14.18;8.43;;;;;;;;;;5006522;28;25055;-72
2023/12/04 13:13:22;;;;;;;12.55;9.02;;;;;;;;;;5003538;28;25068;-72
2023/12/04 13:15:49;;;;;;;12.13;9.20;;;;;;;;;;5009485;28;25101;-71
2023/12/04 13:18:15;;;;;;;14.00;9.85;;;;;;;;;;5002404;28;25083;-71
2023/12/04 13:20:41;;;;;;;12.30;9.18;;;;;;;;;;5009565;28;25072;-70
2023/12/04 13:23:06;;;;;;;13.43;9.18;;;;;;;;;;5009891;28;25062;-70
2023/12/04 13:25:33;;;;;;;14.27;9.90;;;;;;;;;;5005513;28;25069;-71
2023/12/04 13:27:59;;;;;;;13.13;9.48;;;;;;;;;;5004808;28;25129;-71
2023/12/04 13:30:25;;;;;;;13.00;8.77;;;;;;;;;;5023749;28;25069;-70
2023/12/04 13:32:51;;;;;;;15.57;9.85;;;;;;;;;;5009118;28;25078;-71
2023/12/04 13:35:18;;;;;;;13.52;7.88;;;;;;;;;;5018884;28;25069;-71
2023/12/04 13:37:44;;;;;;;15.02;9.27;;;;;;;;;;5009195;28;25060;-71
2023/12/04 13:40:15;;;;;;;11.25;9.55;;;;;;;;;;5008755;28;25098;-71
2023/12/04 13:45:26;;;;;;;11.65;9.23;;;;;;;;;;5009555;28;25163;-72
2023/12/04 13:47:53;;;;;;;13.02;8.95;;;;;;;;;;5011712;28;25095;-71
2023/12/04 13:50:19;;;;;;;14.25;9.32;;;;;;;;;;5012035;28;25063;-72
2023/12/04 13:52:52;;;;;;;12.18;8.50;;;;;;;;;;5007852;28;25057;-71
2023/12/04 13:55:33;;;;;;;13.85;9.63;;;;;;;;;;5006971;28;25060;-71
2023/12/04 14:00:25;;;;;;;12.23;9.35;;;;;;;;;;5007656;28;25095;-72
2023/12/04 14:02:53;;;;;;;14.90;10.30;;;;;;;;;;5008515;28;25123;-71
2023/12/04 14:05:21;;;;;;;14.20;10.18;;;;;;;;;;5009532;28;25056;-70
2023/12/04 14:07:47;;;;;;;15.20;10.15;;;;;;;;;;5010107;28;25065;-70
2023/12/04 14:10:14;;;;;;;13.65;11.07;;;;;;;;;;5008006;28;25105;-70
2023/12/04 14:12:40;;;;;;;19.35;11.88;;;;;;;;;;5006058;28;25062;-72
2023/12/04 14:15:06;;;;;;;15.85;13.75;;;;;;;;;;5007350;28;25094;-71
2023/12/04 14:17:33;;;;;;;17.63;14.27;;;;;;;;;;5007565;28;25139;-71
2023/12/04 14:19:59;;;;;;;21.17;18.98;;;;;;;;;;5008133;28;25074;-71
2023/12/04 14:22:25;;;;;;;23.23;20.85;;;;;;;;;;5007318;28;25074;-72
2023/12/04 14:24:51;;;;;;;24.92;22.55;;;;;;;;;;5009605;28;25153;-72
2023/12/04 14:27:18;;;;;;;25.63;22.90;;;;;;;;;;5016531;28;25061;-72
2023/12/04 14:29:44;;;;;;;26.67;24.25;;;;;;;;;;5014084;28;25077;-71